METAR Data
IDs: Format: Raw Decoded Include TAF

Data at: 0109 UTC 06 Dec 2019

KFLO 060053Z 00000KT 10SM CLR 06/01 A3019 RMK AO2 SLP222 T00610006
KFLO 052353Z 00000KT 10SM CLR 08/01 A3017 RMK AO2 SLP216 T00830006 10178 20083 53027
KFLO 052253Z 00000KT 10SM CLR 12/00 A3014 RMK AO2 SLP206 T01220000
KFLO 052153Z 00000KT 10SM CLR 16/M03 A3011 RMK AO2 SLP195 T01561028
KFLO 052053Z COR 32006KT 10SM CLR 17/M04 A3009 RMK AO2 SLP188 T01721044 53002
KFLO 051953Z 29008KT 10SM CLR 18/M05 A3008 RMK AO2 SLP184 T01781050
KFLO 051853Z VRB05KT 10SM CLR 17/M04 A3008 RMK AO2 SLP184 T01721044
KFLO 051753Z 00000KT 10SM CLR 16/M04 A3009 RMK AO2 SLP186 T01611039 10161 20072 50000
KFLO 051653Z VRB03KT 10SM CLR 15/M03 A3011 RMK AO2 SLP193 T01501028
KFLO 051553Z 02010KT 10SM CLR 14/M04 A3011 RMK AO2 SLP194 T01441039
KFLO 051453Z 36008KT 10SM CLR 14/M02 A3009 RMK AO2 SLP186 T01441017 51028
KFLO 051353Z 34010KT 10SM CLR 12/M02 A3006 RMK AO2 SLP178 T01221022
KFLO 051253Z 31005KT 10SM CLR 09/M02 A3004 RMK AO2 SLP171 T00891017
KFLO 051153Z 30006KT 10SM CLR 08/M02 A3000 RMK AO2 SLP159 T00831017 10089 20061 53035
KFLO 051053Z AUTO 28007KT 10SM CLR 08/M01 A2997 RMK AO2 SLP146 T00781011
KFLO 050953Z AUTO 28006KT 10SM CLR 08/M01 A2993 RMK AO2 SLP133 T00781011
KFLO 050753Z AUTO 27007KT 10SM CLR 08/M01 A2988 RMK AO2 SLP114 T00781006
KFLO 050653Z AUTO 25006KT 10SM CLR 06/M01 A2986 RMK AO2 SLP110 T00611006
KFLO 050553Z AUTO 26007KT 10SM CLR 08/00 A2986 RMK AO2 SLP108 T00830000 10106 20083 52011
KFLO 050453Z AUTO 26009KT 10SM CLR 09/00 A2985 RMK AO2 SLP105 T00890000 401610011
KFLO 050353Z AUTO 25008KT 10SM CLR 09/00 A2983 RMK AO2 SLP100 T00940000
KFLO 050253Z 25008KT 10SM CLR 09/01 A2982 RMK AO2 SLP098 T00940006 51012
KFLO 050153Z 25004KT 10SM CLR 09/00 A2981 RMK AO2 SLP093 T00890000
KFLO 050053Z 25005KT 10SM CLR 10/00 A2981 RMK AO2 SLP092 T01000000
KFLO 042353Z 24005KT 10SM CLR 11/M01 A2979 RMK AO2 SLP086 T01061006 10161 20106 51016
KFLO 042253Z 27007KT 10SM CLR 12/M01 A2978 RMK AO2 SLP082 T01171011
KFLO 042153Z 27008KT 10SM CLR 14/M03 A2976 RMK AO2 SLP075 T01441028
KFLO 042053Z 27011KT 10SM CLR 16/M02 A2974 RMK AO2 SLP071 T01611017 55002
KFLO 041953Z 28013KT 10SM CLR 16/M03 A2974 RMK AO2 SLP068 T01611028
KFLO 041853Z 28009KT 10SM CLR 16/M02 A2973 RMK AO2 SLP067 T01561022
KFLO 041753Z 28009KT 10SM CLR 14/M03 A2975 RMK AO2 SLP072 T01441028 10150 20011 58031
KFLO 041653Z 27008KT 10SM CLR 13/M03 A2979 RMK AO2 SLP086 T01331028
KFLO 041553Z 29005KT 10SM CLR 12/M01 A2983 RMK AO2 SLP099 T01171011
KFLO 041453Z 32006KT 10SM CLR 09/01 A2984 RMK AO2 SLP103 T00940011 53018
KFLO 041353Z 25004KT 10SM CLR 07/02 A2980 RMK AO2 SLP090 T00670022